Latest Coastal Weather Observations for Coolangatta (QLD)

IDN60701

Issued at 6:22 am EST Thursday 29 September 2016 (issued every 10 minutes, with the page automatically refreshed every 10 minutes)

About coastal observations | Map of coastal stations | Coastal observations for NSW | Marine services | Other Formats
Station Details ID: 040717 Name: COOLANGATTA Lat: -28.17 Lon: 153.51 Height: 4.0 m
Data from the previous 72 hours. | See also: Recent months at Coolangatta (QLD)
Date/Time
EST
Temp
°C
Wind Pressure Rain since
9am
mm
Weather Cloud Vis
km
Sea
Height
m
Swell
Dir  Spd
kts
Gust
kts
hPa Trend Height
m
Period
s
Dir
29/06:00am 19.2 NW 6 9 1009.1 - 0.0 - Cloudy 10 - - - -
29/05:30am 18.9 NW 7 10 1008.8 - 0.0 - - 10 - - - -
29/05:00am 18.8 NW 7 10 1008.8 - 0.0 - - 10 - - - -
29/04:30am 18.4 NW 6 8 1009.1 - 0.0 - - 10 - - - -
29/04:08am 18.0 NNW 6 7 1009.1 - 0.0 - - 10 - - - -
29/04:00am 17.5 NW 5 7 1009.0 - 0.0 - Partly cloudy 10 - - - -
29/03:49am 17.2 NW 5 6 1009.4 - 0.0 - Partly cloudy 6 - - - -
29/03:30am 17.6 NW 5 5 1009.4 - 0.0 - Partly cloudy 10 - - - -
29/03:00am 17.6 WNW 3 4 1009.7 - 0.0 - Cloudy 10 - - - -
29/02:30am 18.4 WNW 5 7 1010.1 - 0.0 - Cloudy 10 - - - -
29/02:00am 18.8 NW 5 7 1010.2 - 0.0 - Partly cloudy 10 - - - -
29/01:30am 19.9 N 11 14 1010.6 - 0.0 - Partly cloudy 10 - - - -
29/01:00am 20.1 N 10 13 1011.2 - 0.0 - Partly cloudy 10 - - - -
29/12:30am 20.0 N 11 15 1011.8 - 0.0 - Partly cloudy 10 - - - -
29/12:00am 20.2 N 11 14 1012.0 - 0.0 - Cloudy 10 - - - -
 
Date/Time
EST
Temp
°C
Wind Pressure Rain since
9am
mm
Weather Cloud Vis
km
Sea
Height
m
Swell
Dir  Spd
kts
Gust
kts
hPa Trend Height
m
Period
s
Dir
28/11:30pm 20.1 N 11 14 1012.4 - 0.0 - Partly cloudy 10 - - - -
28/11:00pm 19.7 N 9 12 1012.6 - 0.0 - - 10 - - - -
28/10:30pm 19.4 N 6 10 1012.9 - 0.0 - Partly cloudy 10 - - - -
28/10:00pm 19.6 N 8 10 1012.9 - 0.0 - Partly cloudy 10 - - - -
28/09:30pm 19.8 NNE 8 11 1013.0 - 0.0 - Partly cloudy 10 - - - -
28/09:00pm 20.2 NNE 9 11 1012.9 - 0.0 - Cloudy 10 - - - -
28/08:30pm 20.2 NE 8 10 1012.9 - 0.0 - Partly cloudy 10 - - - -
28/08:00pm 19.9 NE 7 9 1012.8 - 0.0 - Partly cloudy 10 - - - -
28/07:30pm 19.7 NNE 7 8 1012.9 - 0.0 - Partly cloudy 10 - - - -
28/07:00pm 19.9 NE 7 9 1012.9 - 0.0 - Partly cloudy 10 - - - -
28/06:30pm 20.0 NE 8 11 1012.4 - 0.0 - Partly cloudy 10 - - - -
28/06:00pm 20.0 ENE 8 12 1012.2 - 0.0 - Mostly clear 10 - - - -
28/05:30pm 20.1 ENE 8 10 1012.1 - 0.0 - - 10 - - - -
28/05:00pm 20.8 ENE 9 12 1011.7 - 0.0 - - 10 - - - -
28/04:30pm 21.6 ENE 9 12 1011.5 - 0.0 - - 10 - - - -
28/04:00pm 22.0 ENE 11 14 1011.1 - 0.0 - - 10 - - - -
28/03:30pm 22.3 ENE 10 14 1011.0 - 0.0 - - 10 - - - -
28/03:00pm 23.1 E 9 13 1011.1 - 0.0 - - 10 - - - -
28/02:30pm 22.7 E 10 14 1011.3 - 0.0 - - 10 - - - -
28/02:00pm 23.5 E 11 15 1011.7 - 0.0 - - 10 - - - -
28/01:30pm 23.7 E 10 14 1011.9 - 0.0 - - 10 - - - -
28/01:00pm 23.5 ESE 11 14 1012.2 - 0.0 - - 10 - - - -
28/12:30pm 23.3 ESE 12 15 1012.6 - 0.0 - - 10 - - - -
28/12:00pm 23.3 ESE 12 15 1012.8 - 0.0 - - 10 - - - -
28/11:30am 23.2 E 13 17 1013.1 - 0.0 - - 10 - - - -
28/11:00am 23.7 ESE 12 16 1013.5 - 0.0 - - 10 - - - -
28/10:30am 23.2 ESE 13 16 1013.7 - 0.0 - - 10 - - - -
28/10:00am 23.0 SSE 8 14 1014.0 - 0.0 - - 10 - - - -
28/09:30am 22.5 SE 8 12 1014.0 - 0.0 - - 10 - - - -
28/09:00am 22.2 SSW 8 13 1013.9 - 0.0 - - 10 - - - -
28/08:30am 21.8 S 10 14 1013.9 - 0.0 - - 10 - - - -
28/08:00am 21.3 S 8 13 1013.7 - 0.0 - - 10 - - - -
28/07:30am 19.5 SSE 7 8 1013.4 - 0.0 - - 10 - - - -
28/07:00am 17.0 SSE 4 6 1013.3 - 0.0 - - 10 - - - -
28/06:30am 13.9 SW 7 9 1012.7 - 0.0 - - 10 - - - -
28/06:00am 11.6 SW 3 5 1012.4 - 0.0 - - 10 - - - -
28/05:30am 10.7 WSW 5 7 1012.0 - 0.0 - - 10 - - - -
28/05:00am 9.7 WSW 3 5 1011.7 - 0.0 - - 10 - - - -
28/04:30am 9.2 SSW 1 4 1011.3 - 0.0 - - 10 - - - -
28/04:00am 9.5 SW 2 4 1011.2 - 0.0 - - 10 - - - -
28/03:30am 9.6 WSW 2 4 1011.0 - 0.0 - - 10 - - - -
28/03:00am 10.5 SW 2 5 1010.9 - 0.0 - - 10 - - - -
28/02:30am 9.6 CALM 0 0 1010.9 - 0.0 - - 10 - - - -
28/02:00am 9.9 CALM 0 0 1010.9 - 0.0 - - 10 - - - -
28/01:30am 10.2 WSW 3 5 1011.0 - 0.0 - - 10 - - - -
28/01:00am 10.4 CALM 0 3 1011.1 - 0.0 - - 10 - - - -
28/12:30am 10.5 CALM 0 0 1011.3 - 0.0 - - 10 - - - -
28/12:00am 11.9 WSW 4 5 1011.4 - 0.0 - - 10 - - - -
 
Date/Time
EST
Temp
°C
Wind Pressure Rain since
9am
mm
Weather Cloud Vis
km
Sea
Height
m
Swell
Dir  Spd
kts
Gust
kts
hPa Trend Height
m
Period
s
Dir
27/11:30pm 12.0 CALM 0 0 1011.7 - 0.0 - - 10 - - - -
27/11:00pm 13.2 WSW 1 3 1011.9 - 0.0 - - 10 - - - -
27/10:30pm 12.9 WSW 4 5 1011.9 - 0.0 - - 10 - - - -
27/10:00pm 14.2 W 3 5 1012.2 - 0.0 - - 10 - - - -
27/09:30pm 15.6 W 5 7 1012.4 - 0.0 - - 10 - - - -
27/09:00pm 15.3 WSW 5 6 1012.6 - 0.0 - - 10 - - - -
27/08:30pm 15.4 W 5 7 1012.6 - 0.0 - - 10 - - - -
27/08:00pm 15.9 W 5 6 1012.4 - 0.0 - - 10 - - - -
27/07:30pm 16.4 W 4 5 1012.4 - 0.0 - - 10 - - - -
27/07:00pm 17.5 NW 7 8 1012.1 - 0.0 - - 10 - - - -
27/06:30pm 18.4 NW 7 10 1011.8 - 0.0 - - 10 - - - -
27/06:00pm 19.0 NNW 8 11 1011.4 - 0.0 - - 10 - - - -
27/05:30pm 19.7 N 10 13 1011.0 - 0.0 - - 10 - - - -
27/05:00pm 20.2 N 10 12 1010.8 - 0.0 - - 10 - - - -
27/04:30pm 20.9 N 9 12 1010.7 - 0.0 - - 10 - - - -
27/04:00pm 21.3 NNE 9 11 1010.5 - 0.0 - - 10 - - - -
27/03:30pm 21.8 NNE 9 11 1010.4 - 0.0 - - 10 - - - -
27/03:00pm 21.6 NNE 10 13 1010.5 - 0.0 - - 10 - - - -
27/02:30pm 22.3 ENE 10 13 1010.8 - 0.0 - - 10 - - - -
27/02:00pm 22.2 NE 11 14 1011.2 - 0.0 - - 10 - - - -
27/01:30pm 22.4 ESE 11 15 1011.5 - 0.0 - - 10 - - - -
27/01:00pm 22.6 ESE 13 18 1011.7 - 0.0 - - 10 - - - -
27/12:30pm 22.2 ESE 11 15 1012.0 - 0.0 - - 10 - - - -
27/12:00pm 24.0 SSW 8 11 1012.3 - 0.0 - - 10 - - - -
27/11:30am 23.0 S 8 12 1012.8 - 0.0 - - 10 - - - -
27/11:00am 22.8 SW 8 13 1013.3 - 0.0 - - 10 - - - -
27/10:30am 21.8 SW 7 12 1013.7 - 0.0 - - 10 - - - -
27/10:00am 21.9 SSE 11 15 1013.7 - 0.0 - - 10 - - - -
27/09:30am 21.1 SSW 10 16 1014.0 - 0.0 - - 10 - - - -
27/09:00am 19.5 SW 12 17 1014.2 - 0.0 - - 10 - - - -
27/08:30am 18.8 SSW 10 15 1014.2 - 0.0 - - 10 - - - -
27/08:00am 18.5 SW 9 14 1014.4 - 0.0 - - 10 - - - -
27/07:30am 17.9 SW 9 13 1013.9 - 0.0 - - 10 - - - -
27/07:00am 16.6 SW 10 14 1013.2 - 0.0 - - 10 - - - -
27/06:30am 14.3 WSW 5 6 1013.1 - 0.0 - - 10 - - - -
27/06:00am 13.0 WSW 3 5 1012.6 - 0.0 - Mostly cloudy 10 - - - -
27/05:30am 13.7 SE 1 4 1012.2 - 0.0 - - 10 - - - -
27/05:00am 15.9 SSW 6 9 1011.6 - 0.0 - - 10 - - - -
27/04:30am 14.9 S 7 8 1011.3 - 0.0 - - 10 - - - -
27/04:00am 16.1 SSW 7 11 1011.0 - 0.0 - - 10 - - - -
27/03:30am 15.8 SSW 5 9 1010.9 - 0.0 - - 10 - - - -
27/03:00am 16.8 SSW 9 13 1010.6 - 0.0 - - 10 - - - -
27/02:30am 17.0 SSW 12 17 1010.6 - 0.0 - - 10 - - - -
27/02:00am 13.0 WSW 5 9 1011.1 - 0.0 - - 10 - - - -
27/01:30am 13.4 CALM 0 3 1011.0 - 0.0 - - 10 - - - -
27/01:00am 13.8 WSW 1 4 1011.0 - 0.0 - - 10 - - - -
27/12:30am 14.1 WSW 6 6 1011.2 - 0.0 - - 10 - - - -
27/12:00am 15.3 WSW 6 8 1011.3 - 0.0 - Mostly cloudy 10 - - - -
 
Date/Time
EST
Temp
°C
Wind Pressure Rain since
9am
mm
Weather Cloud Vis
km
Sea
Height
m
Swell
Dir  Spd
kts
Gust
kts
hPa Trend Height
m
Period
s
Dir
26/11:30pm 15.0 WSW 5 5 1011.5 - 0.0 - - 10 - - - -
26/11:00pm 15.9 WSW 3 5 1011.7 - 0.0 - - 10 - - - -
26/10:30pm 16.8 NW 6 7 1011.8 - 0.0 - - 10 - - - -
26/10:00pm 16.1 WNW 6 7 1012.0 - 0.0 - - 10 - - - -
26/09:30pm 16.6 WNW 6 7 1011.9 - 0.0 - - 10 - - - -
26/09:00pm 17.5 WNW 6 7 1011.9 - 0.0 - - 10 - - - -
26/08:30pm 17.4 WNW 5 6 1011.7 - 0.0 - - 10 - - - -
26/08:00pm 18.6 NW 6 9 1011.4 - 0.0 - - 10 - - - -
26/07:30pm 19.1 NNW 5 7 1010.8 - 0.0 - - 10 - - - -
26/07:00pm 20.1 N 8 10 1010.8 - 0.0 - - 10 - - - -
26/06:30pm 20.2 N 7 9 1010.5 - 0.0 - - 10 - - - -
26/06:00pm 20.3 NNE 7 8 1010.3 - 0.0 - - 10 - - - -
26/05:30pm 20.8 NNE 7 10 1010.5 - 0.0 - - 10 - - - -
26/05:00pm 21.4 NNE 7 8 1010.3 - 0.0 - - 10 - - - -
26/04:30pm 22.4 NE 8 10 1010.0 - 0.0 - - 10 - - - -
26/04:00pm 22.2 NE 8 11 1009.9 - 0.0 - - 10 - - - -
26/03:30pm 22.5 NE 8 11 1009.7 - 0.0 - - 10 - - - -
26/03:00pm 23.4 ENE 9 11 1009.6 - 0.0 - - 10 - - - -
26/02:30pm 23.0 ENE 9 12 1009.8 - 0.0 - - 10 - - - -
26/02:00pm 22.9 ENE 9 14 1010.0 - 0.0 - - 10 - - - -
26/01:30pm 23.2 E 9 12 1010.2 - 0.0 - - 10 - - - -
26/01:00pm 22.8 ENE 11 14 1010.4 - 0.0 - - 10 - - - -
26/12:30pm 23.8 E 11 15 1010.8 - 0.0 - - 10 - - - -
26/12:00pm 23.6 E 12 14 1011.2 - 0.0 - - 10 - - - -
26/11:30am 24.1 ESE 10 12 1011.6 - 0.0 - - 10 - - - -
26/11:00am 23.4 E 11 15 1012.2 - 0.0 - - 10 - - - -
26/10:30am 23.5 E 6 9 1012.6 - 0.0 - - 10 - - - -
26/10:00am 23.1 SE 7 12 1012.8 - 0.0 - - 10 - - - -
26/09:30am 22.5 SSW 7 10 1012.9 - 0.0 - - 10 - - - -
26/09:00am 22.2 S 9 13 1013.1 - 0.0 - - 10 - - - -
26/08:30am 21.7 SSW 8 13 1013.0 - 0.0 - - 10 - - - -
26/08:00am 20.8 SSW 9 14 1012.8 - 0.0 - - 10 - - - -
26/07:30am 20.1 SSW 7 11 1012.6 - 0.0 - - 10 - - - -
26/07:00am 18.8 SW 5 7 1012.2 - 0.0 - - 10 - - - -
26/06:30am 17.3 SW 2 4 1011.8 - 0.0 - - 10 - - - -

Other Formats:

Comma delimited format used in spreadsheet applications
http://www.bom.gov.au/fwo/IDN60701/IDN60701.94592.axf

JavaScript Object Notation format (JSON) in row-major order
http://www.bom.gov.au/fwo/IDN60701/IDN60701.94592.json